sensor_id;sensor_type;location;lat;lon;timestamp;P1;durP1;ratioP1;P2;durP2;ratioP2
5718;SDS011;2884;47.734;9.244;2023-03-31T00:00:42;7.83;;;4.53;;
5718;SDS011;2884;47.734;9.244;2023-03-31T00:03:08;8.40;;;4.10;;
5718;SDS011;2884;47.734;9.244;2023-03-31T00:05:49;12.73;;;5.17;;
5718;SDS011;2884;47.734;9.244;2023-03-31T00:08:25;9.87;;;4.40;;
5718;SDS011;2884;47.734;9.244;2023-03-31T00:10:56;10.83;;;4.10;;
5718;SDS011;2884;47.734;9.244;2023-03-31T00:13:23;4.43;;;3.53;;
5718;SDS011;2884;47.734;9.244;2023-03-31T00:15:48;8.67;;;4.57;;
5718;SDS011;2884;47.734;9.244;2023-03-31T00:18:14;6.80;;;4.23;;
5718;SDS011;2884;47.734;9.244;2023-03-31T00:20:40;8.37;;;4.40;;
5718;SDS011;2884;47.734;9.244;2023-03-31T00:23:07;8.80;;;4.00;;
5718;SDS011;2884;47.734;9.244;2023-03-31T00:25:35;13.23;;;4.60;;
5718;SDS011;2884;47.734;9.244;2023-03-31T00:28:05;8.07;;;4.40;;
5718;SDS011;2884;47.734;9.244;2023-03-31T00:30:30;9.70;;;4.77;;
5718;SDS011;2884;47.734;9.244;2023-03-31T00:32:56;5.47;;;4.20;;
5718;SDS011;2884;47.734;9.244;2023-03-31T00:35:21;8.40;;;4.20;;
5718;SDS011;2884;47.734;9.244;2023-03-31T00:37:47;11.70;;;4.93;;
5718;SDS011;2884;47.734;9.244;2023-03-31T00:40:13;11.70;;;4.93;;
5718;SDS011;2884;47.734;9.244;2023-03-31T00:42:42;14.57;;;4.27;;
5718;SDS011;2884;47.734;9.244;2023-03-31T00:47:44;13.67;;;6.10;;
5718;SDS011;2884;47.734;9.244;2023-03-31T00:50:15;10.30;;;4.63;;
5718;SDS011;2884;47.734;9.244;2023-03-31T00:52:43;9.30;;;4.30;;
5718;SDS011;2884;47.734;9.244;2023-03-31T00:55:11;14.73;;;4.13;;
5718;SDS011;2884;47.734;9.244;2023-03-31T00:57:41;12.27;;;4.03;;
5718;SDS011;2884;47.734;9.244;2023-03-31T01:00:09;12.20;;;4.13;;
5718;SDS011;2884;47.734;9.244;2023-03-31T01:02:47;7.60;;;4.30;;
5718;SDS011;2884;47.734;9.244;2023-03-31T01:05:21;8.80;;;4.50;;
5718;SDS011;2884;47.734;9.244;2023-03-31T01:07:48;11.00;;;4.33;;
5718;SDS011;2884;47.734;9.244;2023-03-31T01:10:15;6.70;;;4.10;;
5718;SDS011;2884;47.734;9.244;2023-03-31T01:12:43;8.30;;;4.10;;
5718;SDS011;2884;47.734;9.244;2023-03-31T01:15:10;7.87;;;4.00;;
5718;SDS011;2884;47.734;9.244;2023-03-31T01:17:36;7.13;;;4.00;;
5718;SDS011;2884;47.734;9.244;2023-03-31T01:25:26;8.50;;;4.03;;
5718;SDS011;2884;47.734;9.244;2023-03-31T01:38:53;3.83;;;3.40;;
5718;SDS011;2884;47.734;9.244;2023-03-31T01:44:45;6.10;;;3.33;;
5718;SDS011;2884;47.734;9.244;2023-03-31T01:47:18;5.40;;;3.90;;
5718;SDS011;2884;47.734;9.244;2023-03-31T01:53:02;5.93;;;4.00;;
5718;SDS011;2884;47.734;9.244;2023-03-31T01:55:33;6.50;;;3.63;;
5718;SDS011;2884;47.734;9.244;2023-03-31T01:58:11;8.20;;;4.30;;
5718;SDS011;2884;47.734;9.244;2023-03-31T02:00:40;8.97;;;4.03;;
5718;SDS011;2884;47.734;9.244;2023-03-31T02:03:14;5.23;;;3.60;;
5718;SDS011;2884;47.734;9.244;2023-03-31T02:05:44;4.33;;;3.93;;
5718;SDS011;2884;47.734;9.244;2023-03-31T02:08:22;7.10;;;4.40;;
5718;SDS011;2884;47.734;9.244;2023-03-31T02:10:51;7.00;;;3.77;;
5718;SDS011;2884;47.734;9.244;2023-03-31T02:13:17;9.07;;;3.73;;
5718;SDS011;2884;47.734;9.244;2023-03-31T02:15:45;9.00;;;4.43;;
5718;SDS011;2884;47.734;9.244;2023-03-31T02:18:14;7.17;;;4.03;;
5718;SDS011;2884;47.734;9.244;2023-03-31T02:20:41;7.20;;;3.97;;
5718;SDS011;2884;47.734;9.244;2023-03-31T02:23:07;5.53;;;4.03;;
5718;SDS011;2884;47.734;9.244;2023-03-31T02:25:35;9.60;;;4.80;;
5718;SDS011;2884;47.734;9.244;2023-03-31T02:28:06;10.33;;;4.80;;
5718;SDS011;2884;47.734;9.244;2023-03-31T02:30:35;4.00;;;3.60;;
5718;SDS011;2884;47.734;9.244;2023-03-31T02:33:13;6.43;;;4.40;;
5718;SDS011;2884;47.734;9.244;2023-03-31T02:35:40;7.47;;;4.50;;
5718;SDS011;2884;47.734;9.244;2023-03-31T02:38:06;6.43;;;4.13;;
5718;SDS011;2884;47.734;9.244;2023-03-31T02:40:33;6.13;;;3.90;;
5718;SDS011;2884;47.734;9.244;2023-03-31T02:42:59;7.33;;;3.93;;
5718;SDS011;2884;47.734;9.244;2023-03-31T02:45:35;5.40;;;4.07;;
5718;SDS011;2884;47.734;9.244;2023-03-31T02:48:14;6.07;;;4.17;;
5718;SDS011;2884;47.734;9.244;2023-03-31T03:02:14;10.37;;;4.77;;
5718;SDS011;2884;47.734;9.244;2023-03-31T03:04:48;8.00;;;4.87;;
5718;SDS011;2884;47.734;9.244;2023-03-31T03:07:24;8.37;;;5.00;;
5718;SDS011;2884;47.734;9.244;2023-03-31T03:10:19;7.33;;;4.27;;
5718;SDS011;2884;47.734;9.244;2023-03-31T03:15:32;7.10;;;4.90;;
5718;SDS011;2884;47.734;9.244;2023-03-31T03:18:01;8.37;;;4.43;;
5718;SDS011;2884;47.734;9.244;2023-03-31T03:20:28;10.80;;;4.80;;
5718;SDS011;2884;47.734;9.244;2023-03-31T03:22:53;6.93;;;4.83;;
5718;SDS011;2884;47.734;9.244;2023-03-31T03:25:19;8.40;;;5.10;;
5718;SDS011;2884;47.734;9.244;2023-03-31T03:27:45;13.57;;;5.00;;
5718;SDS011;2884;47.734;9.244;2023-03-31T03:30:11;11.97;;;4.80;;
5718;SDS011;2884;47.734;9.244;2023-03-31T03:32:37;9.40;;;4.47;;
5718;SDS011;2884;47.734;9.244;2023-03-31T03:35:03;9.23;;;4.23;;
5718;SDS011;2884;47.734;9.244;2023-03-31T03:37:30;12.90;;;5.03;;
5718;SDS011;2884;47.734;9.244;2023-03-31T03:39:56;9.03;;;4.90;;
5718;SDS011;2884;47.734;9.244;2023-03-31T03:42:21;8.37;;;4.50;;
5718;SDS011;2884;47.734;9.244;2023-03-31T03:44:47;6.73;;;4.90;;
5718;SDS011;2884;47.734;9.244;2023-03-31T03:47:12;5.73;;;3.63;;
5718;SDS011;2884;47.734;9.244;2023-03-31T03:49:38;10.83;;;3.73;;
5718;SDS011;2884;47.734;9.244;2023-03-31T03:52:03;6.10;;;4.00;;
5718;SDS011;2884;47.734;9.244;2023-03-31T03:54:29;6.23;;;4.07;;
5718;SDS011;2884;47.734;9.244;2023-03-31T03:56:55;11.03;;;4.10;;
5718;SDS011;2884;47.734;9.244;2023-03-31T03:59:20;10.10;;;4.63;;
5718;SDS011;2884;47.734;9.244;2023-03-31T04:01:46;7.43;;;4.37;;
5718;SDS011;2884;47.734;9.244;2023-03-31T04:04:11;6.37;;;4.37;;
5718;SDS011;2884;47.734;9.244;2023-03-31T04:06:37;7.27;;;4.13;;
5718;SDS011;2884;47.734;9.244;2023-03-31T04:09:03;6.50;;;3.83;;
5718;SDS011;2884;47.734;9.244;2023-03-31T04:11:28;8.70;;;4.07;;
5718;SDS011;2884;47.734;9.244;2023-03-31T04:13:54;12.93;;;4.03;;
5718;SDS011;2884;47.734;9.244;2023-03-31T04:16:19;13.97;;;5.10;;
5718;SDS011;2884;47.734;9.244;2023-03-31T04:18:47;7.60;;;4.20;;
5718;SDS011;2884;47.734;9.244;2023-03-31T04:21:13;7.13;;;3.93;;
5718;SDS011;2884;47.734;9.244;2023-03-31T04:23:47;5.87;;;4.00;;
5718;SDS011;2884;47.734;9.244;2023-03-31T04:26:23;7.83;;;4.00;;
5718;SDS011;2884;47.734;9.244;2023-03-31T04:28:58;9.30;;;4.10;;
5718;SDS011;2884;47.734;9.244;2023-03-31T04:31:27;8.83;;;4.10;;
5718;SDS011;2884;47.734;9.244;2023-03-31T04:33:54;8.10;;;4.20;;
5718;SDS011;2884;47.734;9.244;2023-03-31T04:36:21;7.60;;;4.43;;
5718;SDS011;2884;47.734;9.244;2023-03-31T04:38:47;5.87;;;3.80;;
5718;SDS011;2884;47.734;9.244;2023-03-31T04:41:17;9.63;;;4.50;;
5718;SDS011;2884;47.734;9.244;2023-03-31T04:43:43;8.60;;;3.60;;
5718;SDS011;2884;47.734;9.244;2023-03-31T04:46:09;8.53;;;3.53;;
5718;SDS011;2884;47.734;9.244;2023-03-31T04:48:34;7.13;;;3.87;;
5718;SDS011;2884;47.734;9.244;2023-03-31T04:51:00;5.63;;;3.80;;
5718;SDS011;2884;47.734;9.244;2023-03-31T04:53:26;5.57;;;3.87;;
5718;SDS011;2884;47.734;9.244;2023-03-31T04:55:52;5.73;;;3.83;;
5718;SDS011;2884;47.734;9.244;2023-03-31T04:58:18;7.50;;;4.13;;
5718;SDS011;2884;47.734;9.244;2023-03-31T05:00:43;3.87;;;3.57;;
5718;SDS011;2884;47.734;9.244;2023-03-31T05:03:09;7.67;;;3.50;;
5718;SDS011;2884;47.734;9.244;2023-03-31T05:05:35;5.50;;;4.23;;
5718;SDS011;2884;47.734;9.244;2023-03-31T05:08:02;7.10;;;3.80;;
5718;SDS011;2884;47.734;9.244;2023-03-31T05:10:28;5.70;;;3.10;;
5718;SDS011;2884;47.734;9.244;2023-03-31T05:12:54;3.13;;;2.83;;
5718;SDS011;2884;47.734;9.244;2023-03-31T05:15:23;3.87;;;3.20;;
5718;SDS011;2884;47.734;9.244;2023-03-31T05:17:49;4.20;;;3.70;;
5718;SDS011;2884;47.734;9.244;2023-03-31T05:20:16;7.40;;;3.93;;
5718;SDS011;2884;47.734;9.244;2023-03-31T05:22:44;4.73;;;3.30;;
5718;SDS011;2884;47.734;9.244;2023-03-31T05:25:10;12.37;;;4.67;;
5718;SDS011;2884;47.734;9.244;2023-03-31T05:27:38;8.90;;;4.50;;
5718;SDS011;2884;47.734;9.244;2023-03-31T05:30:04;4.37;;;2.97;;
5718;SDS011;2884;47.734;9.244;2023-03-31T05:32:32;8.13;;;3.20;;
5718;SDS011;2884;47.734;9.244;2023-03-31T05:34:57;5.43;;;3.40;;
5718;SDS011;2884;47.734;9.244;2023-03-31T05:37:24;4.10;;;3.70;;
5718;SDS011;2884;47.734;9.244;2023-03-31T05:39:50;4.47;;;3.80;;
5718;SDS011;2884;47.734;9.244;2023-03-31T05:42:16;6.70;;;4.10;;
5718;SDS011;2884;47.734;9.244;2023-03-31T05:44:42;5.93;;;3.70;;
5718;SDS011;2884;47.734;9.244;2023-03-31T05:47:07;5.63;;;3.30;;
5718;SDS011;2884;47.734;9.244;2023-03-31T05:49:32;8.50;;;3.23;;
5718;SDS011;2884;47.734;9.244;2023-03-31T05:51:58;5.97;;;3.30;;
5718;SDS011;2884;47.734;9.244;2023-03-31T05:54:24;4.77;;;2.97;;
5718;SDS011;2884;47.734;9.244;2023-03-31T05:56:49;4.73;;;3.10;;
5718;SDS011;2884;47.734;9.244;2023-03-31T05:59:15;5.87;;;3.30;;
5718;SDS011;2884;47.734;9.244;2023-03-31T06:01:41;6.20;;;3.13;;
5718;SDS011;2884;47.734;9.244;2023-03-31T06:04:06;7.13;;;3.73;;
5718;SDS011;2884;47.734;9.244;2023-03-31T06:06:32;4.77;;;2.93;;
5718;SDS011;2884;47.734;9.244;2023-03-31T06:08:58;6.40;;;3.70;;
5718;SDS011;2884;47.734;9.244;2023-03-31T06:11:24;6.63;;;3.77;;
5718;SDS011;2884;47.734;9.244;2023-03-31T06:13:50;7.53;;;3.30;;
5718;SDS011;2884;47.734;9.244;2023-03-31T06:16:16;6.63;;;5.00;;
5718;SDS011;2884;47.734;9.244;2023-03-31T06:18:42;6.00;;;3.73;;
5718;SDS011;2884;47.734;9.244;2023-03-31T06:21:10;6.17;;;3.13;;
5718;SDS011;2884;47.734;9.244;2023-03-31T06:23:37;5.50;;;4.20;;
5718;SDS011;2884;47.734;9.244;2023-03-31T06:26:04;5.83;;;3.10;;
5718;SDS011;2884;47.734;9.244;2023-03-31T06:28:33;5.40;;;3.93;;
5718;SDS011;2884;47.734;9.244;2023-03-31T06:30:59;6.60;;;3.70;;
5718;SDS011;2884;47.734;9.244;2023-03-31T06:33:26;6.93;;;4.17;;
5718;SDS011;2884;47.734;9.244;2023-03-31T06:35:54;7.60;;;3.97;;
5718;SDS011;2884;47.734;9.244;2023-03-31T06:38:20;5.50;;;3.93;;
5718;SDS011;2884;47.734;9.244;2023-03-31T06:40:46;6.13;;;4.00;;
5718;SDS011;2884;47.734;9.244;2023-03-31T06:43:11;8.20;;;4.33;;
5718;SDS011;2884;47.734;9.244;2023-03-31T06:45:37;5.90;;;4.80;;
5718;SDS011;2884;47.734;9.244;2023-03-31T06:48:02;4.87;;;4.47;;
5718;SDS011;2884;47.734;9.244;2023-03-31T06:50:28;4.77;;;4.40;;
5718;SDS011;2884;47.734;9.244;2023-03-31T06:52:53;8.00;;;6.77;;
5718;SDS011;2884;47.734;9.244;2023-03-31T06:55:20;6.37;;;5.77;;
5718;SDS011;2884;47.734;9.244;2023-03-31T06:57:45;7.67;;;5.17;;
5718;SDS011;2884;47.734;9.244;2023-03-31T07:00:11;8.70;;;4.37;;
5718;SDS011;2884;47.734;9.244;2023-03-31T07:02:37;14.10;;;7.33;;
5718;SDS011;2884;47.734;9.244;2023-03-31T07:05:02;10.60;;;6.10;;
5718;SDS011;2884;47.734;9.244;2023-03-31T07:07:32;6.43;;;3.50;;
5718;SDS011;2884;47.734;9.244;2023-03-31T07:09:58;9.80;;;4.23;;
5718;SDS011;2884;47.734;9.244;2023-03-31T07:12:24;5.20;;;3.23;;
5718;SDS011;2884;47.734;9.244;2023-03-31T07:14:50;7.20;;;3.43;;
5718;SDS011;2884;47.734;9.244;2023-03-31T07:17:15;7.43;;;3.10;;
5718;SDS011;2884;47.734;9.244;2023-03-31T07:19:41;4.80;;;2.87;;
5718;SDS011;2884;47.734;9.244;2023-03-31T07:22:09;3.10;;;2.80;;
5718;SDS011;2884;47.734;9.244;2023-03-31T07:24:35;5.63;;;3.10;;
5718;SDS011;2884;47.734;9.244;2023-03-31T07:27:00;3.27;;;2.90;;
5718;SDS011;2884;47.734;9.244;2023-03-31T07:29:26;4.50;;;3.27;;
5718;SDS011;2884;47.734;9.244;2023-03-31T07:31:51;3.70;;;2.70;;
5718;SDS011;2884;47.734;9.244;2023-03-31T07:34:17;11.30;;;2.90;;
5718;SDS011;2884;47.734;9.244;2023-03-31T07:36:42;4.60;;;3.43;;
5718;SDS011;2884;47.734;9.244;2023-03-31T07:39:08;6.10;;;2.97;;
5718;SDS011;2884;47.734;9.244;2023-03-31T07:41:33;4.40;;;3.23;;
5718;SDS011;2884;47.734;9.244;2023-03-31T07:44:00;7.30;;;2.73;;
5718;SDS011;2884;47.734;9.244;2023-03-31T07:46:26;2.67;;;2.33;;
5718;SDS011;2884;47.734;9.244;2023-03-31T07:48:52;6.30;;;2.53;;
5718;SDS011;2884;47.734;9.244;2023-03-31T07:51:20;4.77;;;3.73;;
5718;SDS011;2884;47.734;9.244;2023-03-31T07:53:47;5.33;;;3.03;;
5718;SDS011;2884;47.734;9.244;2023-03-31T07:56:17;9.90;;;4.40;;
5718;SDS011;2884;47.734;9.244;2023-03-31T07:58:44;4.00;;;3.33;;
5718;SDS011;2884;47.734;9.244;2023-03-31T08:01:12;3.60;;;2.93;;
5718;SDS011;2884;47.734;9.244;2023-03-31T08:03:42;9.20;;;3.33;;
5718;SDS011;2884;47.734;9.244;2023-03-31T08:06:08;10.47;;;3.57;;
5718;SDS011;2884;47.734;9.244;2023-03-31T08:08:33;3.43;;;3.13;;
5718;SDS011;2884;47.734;9.244;2023-03-31T08:10:59;7.20;;;3.73;;
5718;SDS011;2884;47.734;9.244;2023-03-31T08:13:25;6.97;;;4.07;;
5718;SDS011;2884;47.734;9.244;2023-03-31T08:15:51;10.30;;;3.80;;
5718;SDS011;2884;47.734;9.244;2023-03-31T08:18:16;10.70;;;4.90;;
5718;SDS011;2884;47.734;9.244;2023-03-31T08:20:42;9.20;;;4.70;;
5718;SDS011;2884;47.734;9.244;2023-03-31T08:23:07;9.07;;;4.27;;
5718;SDS011;2884;47.734;9.244;2023-03-31T08:25:36;10.03;;;3.80;;
5718;SDS011;2884;47.734;9.244;2023-03-31T08:28:01;7.63;;;3.83;;
5718;SDS011;2884;47.734;9.244;2023-03-31T08:30:27;7.97;;;3.93;;
5718;SDS011;2884;47.734;9.244;2023-03-31T08:32:53;15.03;;;3.40;;
5718;SDS011;2884;47.734;9.244;2023-03-31T08:35:18;8.67;;;3.83;;
5718;SDS011;2884;47.734;9.244;2023-03-31T08:37:43;6.20;;;3.23;;
5718;SDS011;2884;47.734;9.244;2023-03-31T08:40:13;6.60;;;2.80;;
5718;SDS011;2884;47.734;9.244;2023-03-31T08:42:48;10.40;;;3.33;;
5718;SDS011;2884;47.734;9.244;2023-03-31T08:47:49;6.70;;;2.50;;
5718;SDS011;2884;47.734;9.244;2023-03-31T08:50:19;2.67;;;2.10;;
5718;SDS011;2884;47.734;9.244;2023-03-31T08:52:49;5.63;;;2.50;;
5718;SDS011;2884;47.734;9.244;2023-03-31T08:55:23;2.63;;;2.10;;
5718;SDS011;2884;47.734;9.244;2023-03-31T09:06:00;3.23;;;1.70;;
5718;SDS011;2884;47.734;9.244;2023-03-31T09:08:33;4.40;;;1.67;;
5718;SDS011;2884;47.734;9.244;2023-03-31T09:19:18;6.70;;;1.60;;
5718;SDS011;2884;47.734;9.244;2023-03-31T09:21:55;4.57;;;1.60;;
5718;SDS011;2884;47.734;9.244;2023-03-31T09:24:26;4.13;;;1.77;;
5718;SDS011;2884;47.734;9.244;2023-03-31T09:26:55;2.77;;;1.30;;
5718;SDS011;2884;47.734;9.244;2023-03-31T09:32:14;5.20;;;1.90;;
5718;SDS011;2884;47.734;9.244;2023-03-31T09:34:51;3.20;;;1.77;;
5718;SDS011;2884;47.734;9.244;2023-03-31T09:37:18;8.10;;;1.67;;
5718;SDS011;2884;47.734;9.244;2023-03-31T09:39:44;6.30;;;1.63;;
5718;SDS011;2884;47.734;9.244;2023-03-31T09:42:13;4.63;;;1.83;;
5718;SDS011;2884;47.734;9.244;2023-03-31T09:44:43;4.03;;;1.80;;
5718;SDS011;2884;47.734;9.244;2023-03-31T09:47:24;5.60;;;1.77;;
5718;SDS011;2884;47.734;9.244;2023-03-31T09:49:56;5.43;;;1.73;;
5718;SDS011;2884;47.734;9.244;2023-03-31T09:52:32;5.90;;;1.97;;
5718;SDS011;2884;47.734;9.244;2023-03-31T09:55:22;5.37;;;1.90;;
5718;SDS011;2884;47.734;9.244;2023-03-31T09:58:12;6.00;;;2.40;;
5718;SDS011;2884;47.734;9.244;2023-03-31T10:00:40;5.03;;;2.23;;
5718;SDS011;2884;47.734;9.244;2023-03-31T10:03:09;3.03;;;1.90;;
5718;SDS011;2884;47.734;9.244;2023-03-31T10:05:38;8.90;;;1.73;;
5718;SDS011;2884;47.734;9.244;2023-03-31T10:16:30;2.43;;;1.70;;
5718;SDS011;2884;47.734;9.244;2023-03-31T10:19:26;1.90;;;1.70;;
5718;SDS011;2884;47.734;9.244;2023-03-31T10:40:50;2.20;;;1.20;;
5718;SDS011;2884;47.734;9.244;2023-03-31T10:43:20;4.00;;;1.57;;
5718;SDS011;2884;47.734;9.244;2023-03-31T10:45:59;9.00;;;1.50;;
5718;SDS011;2884;47.734;9.244;2023-03-31T10:48:26;5.40;;;1.80;;
5718;SDS011;2884;47.734;9.244;2023-03-31T10:50:58;4.77;;;1.73;;
5718;SDS011;2884;47.734;9.244;2023-03-31T10:53:48;6.63;;;1.67;;
5718;SDS011;2884;47.734;9.244;2023-03-31T11:02:16;5.20;;;1.70;;
5718;SDS011;2884;47.734;9.244;2023-03-31T11:05:04;3.73;;;1.47;;
5718;SDS011;2884;47.734;9.244;2023-03-31T11:15:52;7.27;;;1.73;;
5718;SDS011;2884;47.734;9.244;2023-03-31T11:24:21;4.97;;;1.60;;
5718;SDS011;2884;47.734;9.244;2023-03-31T11:32:29;3.87;;;1.20;;
5718;SDS011;2884;47.734;9.244;2023-03-31T11:40:34;8.43;;;2.10;;
5718;SDS011;2884;47.734;9.244;2023-03-31T11:43:04;6.60;;;1.57;;
5718;SDS011;2884;47.734;9.244;2023-03-31T11:46:10;4.83;;;1.30;;
5718;SDS011;2884;47.734;9.244;2023-03-31T11:51:13;4.83;;;1.27;;
5718;SDS011;2884;47.734;9.244;2023-03-31T11:53:45;3.80;;;1.60;;
5718;SDS011;2884;47.734;9.244;2023-03-31T11:56:11;3.77;;;1.70;;
5718;SDS011;2884;47.734;9.244;2023-03-31T11:58:42;9.70;;;2.40;;
5718;SDS011;2884;47.734;9.244;2023-03-31T12:03:52;1.97;;;1.07;;
5718;SDS011;2884;47.734;9.244;2023-03-31T12:06:21;2.90;;;1.13;;
5718;SDS011;2884;47.734;9.244;2023-03-31T12:11:40;3.13;;;1.33;;
5718;SDS011;2884;47.734;9.244;2023-03-31T12:17:11;3.93;;;1.37;;
5718;SDS011;2884;47.734;9.244;2023-03-31T12:19:42;2.70;;;1.30;;
5718;SDS011;2884;47.734;9.244;2023-03-31T12:24:34;9.80;;;1.80;;
5718;SDS011;2884;47.734;9.244;2023-03-31T12:29:33;2.87;;;1.47;;
5718;SDS011;2884;47.734;9.244;2023-03-31T12:32:06;5.50;;;1.33;;
5718;SDS011;2884;47.734;9.244;2023-03-31T12:34:38;7.20;;;1.53;;
5718;SDS011;2884;47.734;9.244;2023-03-31T12:45:20;9.20;;;1.30;;
5718;SDS011;2884;47.734;9.244;2023-03-31T12:48:05;3.20;;;1.23;;
5718;SDS011;2884;47.734;9.244;2023-03-31T12:56:02;2.63;;;1.73;;
5718;SDS011;2884;47.734;9.244;2023-03-31T13:09:00;2.80;;;0.73;;
5718;SDS011;2884;47.734;9.244;2023-03-31T13:14:01;0.63;;;0.50;;
5718;SDS011;2884;47.734;9.244;2023-03-31T13:16:42;2.50;;;0.77;;
5718;SDS011;2884;47.734;9.244;2023-03-31T13:19:09;2.00;;;0.80;;
5718;SDS011;2884;47.734;9.244;2023-03-31T13:21:56;2.60;;;0.60;;
5718;SDS011;2884;47.734;9.244;2023-03-31T13:24:23;4.13;;;1.03;;
5718;SDS011;2884;47.734;9.244;2023-03-31T13:26:50;0.70;;;0.60;;
5718;SDS011;2884;47.734;9.244;2023-03-31T13:34:35;1.20;;;1.10;;
5718;SDS011;2884;47.734;9.244;2023-03-31T13:43:07;1.57;;;1.00;;
5718;SDS011;2884;47.734;9.244;2023-03-31T13:48:03;1.60;;;0.73;;
5718;SDS011;2884;47.734;9.244;2023-03-31T14:10:04;2.00;;;0.70;;
5718;SDS011;2884;47.734;9.244;2023-03-31T14:12:35;3.30;;;0.70;;
5718;SDS011;2884;47.734;9.244;2023-03-31T14:15:02;1.93;;;0.70;;
5718;SDS011;2884;47.734;9.244;2023-03-31T14:17:35;4.63;;;0.73;;
5718;SDS011;2884;47.734;9.244;2023-03-31T14:39:33;4.97;;;1.73;;
5718;SDS011;2884;47.734;9.244;2023-03-31T14:42:03;2.70;;;1.87;;
5718;SDS011;2884;47.734;9.244;2023-03-31T14:44:32;4.97;;;2.07;;
5718;SDS011;2884;47.734;9.244;2023-03-31T14:46:57;2.20;;;1.90;;
5718;SDS011;2884;47.734;9.244;2023-03-31T14:49:28;8.23;;;1.93;;
5718;SDS011;2884;47.734;9.244;2023-03-31T14:52:00;2.00;;;1.77;;
5718;SDS011;2884;47.734;9.244;2023-03-31T14:54:32;10.50;;;1.70;;
5718;SDS011;2884;47.734;9.244;2023-03-31T14:56:58;2.23;;;1.37;;
5718;SDS011;2884;47.734;9.244;2023-03-31T14:59:29;6.93;;;1.73;;
5718;SDS011;2884;47.734;9.244;2023-03-31T15:01:58;3.57;;;1.73;;
5718;SDS011;2884;47.734;9.244;2023-03-31T15:04:25;5.37;;;1.73;;
5718;SDS011;2884;47.734;9.244;2023-03-31T15:06:53;2.23;;;1.27;;
5718;SDS011;2884;47.734;9.244;2023-03-31T15:11:45;2.90;;;1.43;;
5718;SDS011;2884;47.734;9.244;2023-03-31T15:14:11;1.40;;;1.20;;
5718;SDS011;2884;47.734;9.244;2023-03-31T15:16:41;4.43;;;1.53;;
5718;SDS011;2884;47.734;9.244;2023-03-31T15:19:15;2.13;;;1.07;;
5718;SDS011;2884;47.734;9.244;2023-03-31T15:21:43;5.00;;;1.50;;
5718;SDS011;2884;47.734;9.244;2023-03-31T15:24:10;5.53;;;1.20;;
5718;SDS011;2884;47.734;9.244;2023-03-31T15:26:37;1.03;;;0.70;;
5718;SDS011;2884;47.734;9.244;2023-03-31T15:29:07;5.07;;;1.03;;
5718;SDS011;2884;47.734;9.244;2023-03-31T15:31:36;6.90;;;1.57;;
5718;SDS011;2884;47.734;9.244;2023-03-31T15:34:13;2.43;;;1.07;;
5718;SDS011;2884;47.734;9.244;2023-03-31T15:36:44;5.70;;;0.97;;
5718;SDS011;2884;47.734;9.244;2023-03-31T15:39:09;3.60;;;1.00;;
5718;SDS011;2884;47.734;9.244;2023-03-31T15:41:36;10.13;;;2.10;;
5718;SDS011;2884;47.734;9.244;2023-03-31T15:44:06;3.03;;;1.17;;
5718;SDS011;2884;47.734;9.244;2023-03-31T15:49:04;0.70;;;0.70;;
5718;SDS011;2884;47.734;9.244;2023-03-31T15:51:37;2.83;;;0.73;;
5718;SDS011;2884;47.734;9.244;2023-03-31T15:54:25;2.23;;;0.80;;
5718;SDS011;2884;47.734;9.244;2023-03-31T15:56:55;1.93;;;0.80;;
5718;SDS011;2884;47.734;9.244;2023-03-31T15:59:24;0.70;;;0.70;;
5718;SDS011;2884;47.734;9.244;2023-03-31T16:01:54;1.27;;;0.73;;
5718;SDS011;2884;47.734;9.244;2023-03-31T16:04:21;1.63;;;0.70;;
5718;SDS011;2884;47.734;9.244;2023-03-31T16:06:50;2.07;;;0.63;;
5718;SDS011;2884;47.734;9.244;2023-03-31T16:09:28;4.33;;;1.00;;
5718;SDS011;2884;47.734;9.244;2023-03-31T16:12:04;2.30;;;0.80;;
5718;SDS011;2884;47.734;9.244;2023-03-31T16:14:37;9.03;;;0.67;;
5718;SDS011;2884;47.734;9.244;2023-03-31T16:17:51;1.40;;;0.90;;
5718;SDS011;2884;47.734;9.244;2023-03-31T16:20:00;2.80;;;0.73;;
5718;SDS011;2884;47.734;9.244;2023-03-31T16:22:39;2.23;;;0.77;;
5718;SDS011;2884;47.734;9.244;2023-03-31T16:25:13;0.93;;;0.60;;
5718;SDS011;2884;47.734;9.244;2023-03-31T16:27:45;0.93;;;0.60;;
5718;SDS011;2884;47.734;9.244;2023-03-31T16:30:19;0.70;;;0.70;;
5718;SDS011;2884;47.734;9.244;2023-03-31T16:35:28;3.33;;;0.70;;
5718;SDS011;2884;47.734;9.244;2023-03-31T16:37:58;1.60;;;0.80;;
5718;SDS011;2884;47.734;9.244;2023-03-31T16:40:26;2.30;;;0.80;;
5718;SDS011;2884;47.734;9.244;2023-03-31T16:43:05;0.90;;;0.50;;
5718;SDS011;2884;47.734;9.244;2023-03-31T16:45:31;0.80;;;0.53;;
5718;SDS011;2884;47.734;9.244;2023-03-31T16:47:57;2.73;;;0.80;;
5718;SDS011;2884;47.734;9.244;2023-03-31T16:50:22;1.80;;;0.73;;
5718;SDS011;2884;47.734;9.244;2023-03-31T16:52:48;2.13;;;0.80;;
5718;SDS011;2884;47.734;9.244;2023-03-31T16:55:14;1.23;;;0.70;;
5718;SDS011;2884;47.734;9.244;2023-03-31T16:57:40;0.77;;;0.57;;
5718;SDS011;2884;47.734;9.244;2023-03-31T17:00:07;2.73;;;0.90;;
5718;SDS011;2884;47.734;9.244;2023-03-31T17:02:33;0.73;;;0.60;;
5718;SDS011;2884;47.734;9.244;2023-03-31T17:04:58;5.93;;;0.70;;
5718;SDS011;2884;47.734;9.244;2023-03-31T17:07:24;0.50;;;0.50;;
5718;SDS011;2884;47.734;9.244;2023-03-31T17:09:49;0.70;;;0.70;;
5718;SDS011;2884;47.734;9.244;2023-03-31T17:12:15;0.77;;;0.53;;
5718;SDS011;2884;47.734;9.244;2023-03-31T17:14:41;2.20;;;0.80;;
5718;SDS011;2884;47.734;9.244;2023-03-31T17:17:06;4.67;;;0.70;;
5718;SDS011;2884;47.734;9.244;2023-03-31T17:19:32;1.00;;;0.90;;
5718;SDS011;2884;47.734;9.244;2023-03-31T17:21:57;1.63;;;0.80;;
5718;SDS011;2884;47.734;9.244;2023-03-31T17:24:26;1.73;;;0.73;;
5718;SDS011;2884;47.734;9.244;2023-03-31T17:26:52;0.67;;;0.67;;
5718;SDS011;2884;47.734;9.244;2023-03-31T17:29:17;2.53;;;0.80;;
5718;SDS011;2884;47.734;9.244;2023-03-31T17:31:43;1.00;;;0.60;;
5718;SDS011;2884;47.734;9.244;2023-03-31T17:34:09;3.73;;;1.53;;
5718;SDS011;2884;47.734;9.244;2023-03-31T17:36:35;5.23;;;0.80;;
5718;SDS011;2884;47.734;9.244;2023-03-31T17:39:01;0.80;;;0.80;;
5718;SDS011;2884;47.734;9.244;2023-03-31T17:41:28;2.53;;;1.13;;
5718;SDS011;2884;47.734;9.244;2023-03-31T17:43:54;1.20;;;1.07;;
5718;SDS011;2884;47.734;9.244;2023-03-31T17:46:20;3.00;;;1.50;;
5718;SDS011;2884;47.734;9.244;2023-03-31T17:48:45;2.20;;;1.60;;
5718;SDS011;2884;47.734;9.244;2023-03-31T17:51:15;2.73;;;0.70;;
5718;SDS011;2884;47.734;9.244;2023-03-31T17:53:42;1.00;;;0.90;;
5718;SDS011;2884;47.734;9.244;2023-03-31T17:56:09;1.20;;;1.03;;
5718;SDS011;2884;47.734;9.244;2023-03-31T17:58:36;6.80;;;0.90;;
5718;SDS011;2884;47.734;9.244;2023-03-31T18:01:05;2.47;;;1.20;;
5718;SDS011;2884;47.734;9.244;2023-03-31T18:03:32;1.10;;;1.00;;
5718;SDS011;2884;47.734;9.244;2023-03-31T18:06:05;1.37;;;0.83;;
5718;SDS011;2884;47.734;9.244;2023-03-31T18:08:32;2.80;;;1.30;;
5718;SDS011;2884;47.734;9.244;2023-03-31T18:10:59;1.80;;;1.00;;
5718;SDS011;2884;47.734;9.244;2023-03-31T18:13:26;2.50;;;1.10;;
5718;SDS011;2884;47.734;9.244;2023-03-31T18:15:51;3.80;;;1.20;;
5718;SDS011;2884;47.734;9.244;2023-03-31T18:18:18;4.33;;;1.20;;
5718;SDS011;2884;47.734;9.244;2023-03-31T18:20:44;1.90;;;1.00;;
5718;SDS011;2884;47.734;9.244;2023-03-31T18:23:10;1.60;;;1.20;;
5718;SDS011;2884;47.734;9.244;2023-03-31T18:25:36;1.80;;;1.50;;
5718;SDS011;2884;47.734;9.244;2023-03-31T18:28:02;3.10;;;1.70;;
5718;SDS011;2884;47.734;9.244;2023-03-31T18:30:27;4.67;;;2.67;;
5718;SDS011;2884;47.734;9.244;2023-03-31T18:32:53;3.00;;;2.03;;
5718;SDS011;2884;47.734;9.244;2023-03-31T18:35:18;12.00;;;2.33;;
5718;SDS011;2884;47.734;9.244;2023-03-31T18:37:46;3.93;;;2.80;;
5718;SDS011;2884;47.734;9.244;2023-03-31T18:40:11;2.60;;;2.10;;
5718;SDS011;2884;47.734;9.244;2023-03-31T18:42:39;2.77;;;2.33;;
5718;SDS011;2884;47.734;9.244;2023-03-31T18:45:05;6.30;;;2.47;;
5718;SDS011;2884;47.734;9.244;2023-03-31T18:47:33;4.90;;;1.50;;
5718;SDS011;2884;47.734;9.244;2023-03-31T18:50:00;3.03;;;1.80;;
5718;SDS011;2884;47.734;9.244;2023-03-31T18:52:26;2.73;;;1.60;;
5718;SDS011;2884;47.734;9.244;2023-03-31T18:54:52;4.23;;;1.30;;
5718;SDS011;2884;47.734;9.244;2023-03-31T18:57:18;3.43;;;1.20;;
5718;SDS011;2884;47.734;9.244;2023-03-31T18:59:44;1.50;;;0.87;;
5718;SDS011;2884;47.734;9.244;2023-03-31T19:02:13;3.23;;;1.33;;
5718;SDS011;2884;47.734;9.244;2023-03-31T19:04:42;2.57;;;1.03;;
5718;SDS011;2884;47.734;9.244;2023-03-31T19:07:08;3.70;;;0.90;;